Date,TemperatureHighF,TemperatureAvgF,TemperatureLowF,DewpointHighF,DewpointAvgF,DewpointLowF,HumidityHigh,HumidityAvg,HumidityLow,PressureMaxIn,PressureMinIn,WindSpeedMaxMPH,WindSpeedAvgMPH,GustSpeedMaxMPH,PrecipitationSumIn
2013-6-1,76,68,58,72,64,56,97,87,69,29.96,29.65,5,0,14,0.09
2013-6-2,68,60,51,60,56,50,99,88,70,30.03,29.96,2,0,7,0.03
2013-6-3,79,62,47,64,56,46,99,81,51,30.05,29.88,2,0,7,0.01
2013-6-4,77,67,59,68,62,57,96,86,68,29.97,29.86,3,0,9,0.01
2013-6-5,78,67,59,70,64,58,99,89,71,29.99,29.81,3,0,8,0.01
2013-6-6,73,65,56,65,61,54,99,88,72,29.92,29.85,2,0,7,0.01
2013-6-7,77,62,49,61,55,48,99,82,50,29.98,29.88,1,0,9,0.01
2013-6-8,80,65,49,64,57,48,99,77,48,29.93,29.81,2,0,7,0.01
2013-6-9,83,71,61,67,62,59,95,76,45,29.88,29.81,4,0,10,0.00
2013-6-10,89,75,60,73,66,59,96,76,46,29.90,29.82,3,0,10,0.00
2013-6-11,91,79,65,73,68,64,99,72,46,29.95,29.86,3,0,11,0.00
2013-6-12,89,80,71,72,70,68,93,73,52,29.94,29.84,6,1,14,0.00
2013-6-13,90,78,67,74,70,66,99,79,54,29.96,29.88,2,0,6,0.00
2013-6-14,90,77,65,77,70,64,99,81,61,29.98,29.87,1,0,7,0.00
2013-6-15,89,76,67,74,69,65,96,81,57,29.99,29.88,4,0,8,0.00
2013-6-16,87,75,67,77,70,66,99,86,63,29.96,29.85,1,0,12,0.14
2013-6-17,74,68,64,71,67,63,99,95,85,29.93,29.83,3,0,6,0.16
2013-6-18,83,71,60,71,65,59,100,83,53,30.00,29.91,2,0,5,0.01
2013-6-19,85,72,59,71,64,58,99,79,47,30.02,29.92,2,0,7,0.00
2013-6-20,88,73,62,74,67,61,99,83,59,30.03,29.97,3,0,9,0.00
2013-6-22,87,84,74,74,72,69,85,67,57,30.01,29.88,2,0,11,0.00
2013-6-23,88,80,70,75,71,67,94,75,56,29.94,29.85,2,0,11,0.00
2013-6-24,88,80,71,75,70,67,91,74,54,29.99,29.89,1,0,10,0.00
2013-6-25,86,80,73,74,70,69,87,73,60,29.92,29.79,3,1,12,0.00
2013-6-26,92,83,75,77,73,69,93,73,58,29.87,29.78,3,0,12,0.00
2013-6-27,96,82,68,78,72,67,99,75,49,29.92,29.80,2,0,7,0.00
2013-6-28,92,82,73,76,71,66,94,71,45,29.88,29.76,4,0,8,0.00
2013-6-29,87,75,58,64,58,53,98,61,34,29.85,29.75,5,1,13,0.00
2013-6-30,79,68,55,63,60,54,98,76,55,29.93,29.80,2,0,10,0.00